Time;durP1;ratioP1;P1;durP2;ratioP2;P2;SDS_P1;SDS_P2;PMS_P1;PMS_P2;Temp;Humidity;BMP_temperature;BMP_pressure;BME280_temperature;BME280_humidity;BME280_pressure;Samples;Min_cycle;Max_cycle;Signal;HPM_P1;HPM_P2
2022/10/01 00:01:31;;;;;;;9.38;5.70;;;;;;;11.22;100.00;99990.88;5026852;28;20037;-84
2022/10/01 00:03:56;;;;;;;10.93;6.32;;;;;;;11.20;100.00;99988.28;5045668;28;20039;-84
2022/10/01 00:06:23;;;;;;;7.10;5.40;;;;;;;11.19;100.00;99972.84;5031294;28;20075;-85
2022/10/01 00:08:49;;;;;;;7.03;5.80;;;;;;;11.19;100.00;99981.06;5035702;28;20485;-85
2022/10/01 00:11:18;;;;;;;8.02;5.95;;;;;;;11.15;100.00;99995.22;5073892;28;20029;-85
2022/10/01 00:13:44;;;;;;;6.70;4.43;;;;;;;11.15;100.00;99985.13;5046563;28;20128;-83
2022/10/01 00:16:12;;;;;;;6.80;5.38;;;;;;;11.15;100.00;100004.31;5062442;28;20063;-84
2022/10/01 00:18:40;;;;;;;6.85;5.47;;;;;;;11.00;100.00;99975.63;5047746;28;20041;-83
2022/10/01 00:21:16;;;;;;;10.55;6.78;;;;;;;11.18;100.00;99992.19;5064656;28;20053;-84
2022/10/01 00:23:41;;;;;;;12.30;6.50;;;;;;;11.09;100.00;99980.25;5065229;28;20029;-84
2022/10/01 00:26:28;;;;;;;8.88;6.07;;;;;;;11.11;100.00;99991.91;5045378;28;20056;-84
2022/10/01 00:28:56;;;;;;;12.50;6.75;;;;;;;11.12;100.00;99977.22;5061829;28;20017;-84
2022/10/01 00:31:22;;;;;;;8.63;6.78;;;;;;;11.09;100.00;99963.81;5051852;28;20044;-84
2022/10/01 00:33:47;;;;;;;13.50;5.93;;;;;;;11.00;100.00;99973.78;5030647;28;20033;-84
2022/10/01 00:36:13;;;;;;;13.98;7.40;;;;;;;10.92;100.00;99950.84;5042920;28;20037;-84
2022/10/01 00:38:39;;;;;;;14.60;7.07;;;;;;;11.03;100.00;99964.38;5061900;28;20037;-84
2022/10/01 00:41:05;;;;;;;13.13;6.90;;;;;;;11.03;100.00;99969.84;5059484;28;20069;-83
2022/10/01 00:43:34;;;;;;;10.90;7.22;;;;;;;11.06;100.00;99966.81;5045907;28;20036;-83
2022/10/01 00:46:22;;;;;;;9.82;7.35;;;;;;;11.08;100.00;99962.06;5069566;28;20029;-84
2022/10/01 00:49:00;;;;;;;11.70;7.03;;;;;;;11.08;100.00;99966.69;5055227;28;20090;-84
2022/10/01 00:51:33;;;;;;;13.65;7.78;;;;;;;11.15;100.00;99974.19;5040014;28;20029;-84
2022/10/01 00:54:13;;;;;;;11.57;7.63;;;;;;;11.15;100.00;99970.56;5067662;28;20040;-84
2022/10/01 00:56:40;;;;;;;9.32;7.53;;;;;;;11.15;100.00;99979.66;5053668;28;20034;-84
2022/10/01 00:59:06;;;;;;;10.10;7.22;;;;;;;11.14;100.00;99960.63;5073989;28;20037;-85
2022/10/01 01:01:35;;;;;;;11.77;8.18;;;;;;;11.14;100.00;99957.88;5046469;28;20047;-85
2022/10/01 01:04:01;;;;;;;9.77;7.38;;;;;;;11.16;100.00;99932.03;5037635;28;20059;-84
2022/10/01 01:06:26;;;;;;;12.13;7.55;;;;;;;11.08;100.00;99912.75;5062789;28;20560;-85
2022/10/01 01:08:54;;;;;;;13.40;7.75;;;;;;;11.07;100.00;99938.44;5065574;28;20108;-85
2022/10/01 01:11:36;;;;;;;15.50;8.73;;;;;;;11.04;100.00;99958.75;5047746;28;20037;-84
2022/10/01 01:14:12;;;;;;;11.90;8.15;;;;;;;10.96;100.00;99944.06;5077488;28;20033;-84
2022/10/01 01:16:52;;;;;;;13.98;8.10;;;;;;;10.99;100.00;99962.97;5062218;28;20116;-84
2022/10/01 01:19:23;;;;;;;14.85;9.30;;;;;;;11.03;100.00;99967.13;5051848;28;20064;-84
2022/10/01 01:21:55;;;;;;;12.00;7.85;;;;;;;10.98;100.00;99963.97;5047249;28;20112;-84
2022/10/01 01:24:42;;;;;;;8.00;5.68;;;;;;;10.94;100.00;99960.66;5059059;28;20026;-84
2022/10/01 01:27:26;;;;;;;15.65;9.13;;;;;;;10.94;100.00;99974.34;5056574;28;20029;-84
2022/10/01 01:30:09;;;;;;;14.95;7.93;;;;;;;10.89;100.00;99956.59;5058538;28;20412;-84
2022/10/01 01:33:03;;;;;;;16.63;8.43;;;;;;;10.85;100.00;99951.44;5060444;28;20035;-84
2022/10/01 01:35:48;;;;;;;13.23;8.95;;;;;;;10.84;100.00;99940.63;5046157;28;20373;-84
2022/10/01 01:38:20;;;;;;;15.68;9.27;;;;;;;10.81;100.00;99950.00;5063029;28;20056;-84
2022/10/01 01:40:50;;;;;;;18.65;9.65;;;;;;;10.81;100.00;99944.53;5066650;28;20040;-84
2022/10/01 01:43:20;;;;;;;15.07;10.38;;;;;;;10.78;100.00;99902.88;5053737;28;20033;-84
2022/10/01 01:45:50;;;;;;;13.55;8.77;;;;;;;10.79;100.00;99885.41;5053130;28;20028;-83
2022/10/01 01:48:15;;;;;;;10.20;7.55;;;;;;;10.76;100.00;99874.78;5076771;28;20048;-82
2022/10/01 01:50:47;;;;;;;15.13;9.15;;;;;;;10.79;100.00;99885.41;5055846;28;20043;-82
2022/10/01 01:53:14;;;;;;;20.70;10.07;;;;;;;10.65;100.00;99846.53;5073002;28;20025;-83
2022/10/01 01:55:41;;;;;;;11.23;8.60;;;;;;;10.72;100.00;99865.97;5055271;28;20028;-84
2022/10/01 01:58:07;;;;;;;12.57;8.45;;;;;;;10.74;100.00;99874.94;5037539;28;20037;-83
2022/10/01 02:00:32;;;;;;;14.32;9.70;;;;;;;10.68;100.00;99841.81;5054836;28;20060;-83
2022/10/01 02:02:58;;;;;;;14.10;8.95;;;;;;;10.65;100.00;99823.78;5038678;28;20033;-84
2022/10/01 02:05:28;;;;;;;17.17;10.07;;;;;;;10.67;100.00;99821.75;5057865;28;20140;-82
2022/10/01 02:08:11;;;;;;;16.52;9.23;;;;;;;10.64;100.00;99789.22;5080668;28;20028;-83
2022/10/01 02:10:49;;;;;;;17.13;10.73;;;;;;;10.66;100.00;99820.91;5056478;28;20045;-83
2022/10/01 02:13:59;;;;;;;17.48;10.52;;;;;;;10.61;100.00;99815.03;5072802;28;20358;-84
2022/10/01 02:16:37;;;;;;;13.88;8.68;;;;;;;10.61;100.00;99809.53;5071507;28;20044;-82
2022/10/01 02:19:21;;;;;;;14.60;8.65;;;;;;;10.63;100.00;99834.88;5071464;28;20071;-84
2022/10/01 02:22:11;;;;;;;12.40;8.35;;;;;;;10.59;100.00;99835.31;5070890;28;20087;-83
2022/10/01 02:24:44;;;;;;;17.98;10.00;;;;;;;10.64;100.00;99836.63;5070013;28;20037;-84
2022/10/01 02:27:19;;;;;;;16.02;8.93;;;;;;;10.64;100.00;99854.91;5055044;28;20029;-84
2022/10/01 02:29:47;;;;;;;14.95;9.00;;;;;;;10.58;100.00;99839.94;5063272;28;20033;-83
2022/10/01 02:32:16;;;;;;;9.82;5.85;;;;;;;10.46;100.00;99825.56;5055063;28;20036;-83
2022/10/01 02:34:44;;;;;;;11.65;8.30;;;;;;;10.60;100.00;99843.41;5069636;28;20040;-83
2022/10/01 02:37:11;;;;;;;16.50;8.40;;;;;;;10.62;100.00;99838.63;5066091;28;20025;-84
2022/10/01 02:39:40;;;;;;;12.05;8.38;;;;;;;10.66;100.00;99840.06;5070338;28;20063;-84
2022/10/01 02:42:10;;;;;;;13.55;8.77;;;;;;;10.68;100.00;99836.34;5054299;28;20063;-84
2022/10/01 02:44:41;;;;;;;12.00;8.25;;;;;;;10.64;100.00;99822.94;5062209;28;20060;-84
2022/10/01 02:47:19;;;;;;;14.02;8.23;;;;;;;10.63;100.00;99821.19;5057160;28;20045;-84
2022/10/01 02:49:45;;;;;;;13.57;8.00;;;;;;;10.64;100.00;99816.56;5072112;28;20033;-84
2022/10/01 02:52:17;;;;;;;13.00;7.47;;;;;;;10.65;100.00;99805.47;5069637;28;20037;-83
2022/10/01 02:54:57;;;;;;;17.08;6.80;;;;;;;10.66;100.00;99793.53;5070391;28;20077;-84
2022/10/01 02:57:23;;;;;;;8.82;5.30;;;;;;;10.70;100.00;99802.31;5054409;28;20028;-83
2022/10/01 03:00:01;;;;;;;13.70;6.70;;;;;;;10.67;100.00;99769.75;5067089;28;20120;-84
2022/10/01 03:02:28;;;;;;;6.43;5.47;;;;;;;10.79;100.00;99795.06;5035516;28;20060;-83
2022/10/01 03:04:57;;;;;;;7.90;5.63;;;;;;;10.75;100.00;99789.03;5067600;28;20904;-84
2022/10/01 03:07:27;;;;;;;6.53;4.60;;;;;;;10.75;100.00;99778.06;5045900;28;20017;-84
2022/10/01 03:09:53;;;;;;;9.45;5.15;;;;;;;10.73;100.00;99780.13;5061392;28;20035;-84
2022/10/01 03:12:19;;;;;;;9.10;4.93;;;;;;;10.74;100.00;99781.84;5056788;28;20037;-84
2022/10/01 03:14:45;;;;;;;8.00;4.90;;;;;;;10.74;100.00;99761.81;5038302;28;20033;-84
2022/10/01 03:17:12;;;;;;;4.03;3.63;;;;;;;10.76;100.00;99768.88;5056387;28;20041;-84
2022/10/01 03:19:38;;;;;;;5.53;3.53;;;;;;;10.84;100.00;99779.06;5028972;28;20026;-84
2022/10/01 03:22:03;;;;;;;4.63;4.13;;;;;;;10.80;100.00;99770.28;5037454;28;20477;-83
2022/10/01 03:24:29;;;;;;;5.10;3.53;;;;;;;10.88;100.00;99785.13;5041929;28;20032;-84
2022/10/01 03:26:57;;;;;;;7.32;4.22;;;;;;;10.89;100.00;99767.66;5062854;28;20556;-84
2022/10/01 03:29:24;;;;;;;7.95;3.90;;;;;;;10.89;100.00;99764.91;5065725;28;20039;-84
2022/10/01 03:31:50;;;;;;;5.72;3.97;;;;;;;10.90;100.00;99774.84;5063270;28;20388;-84
2022/10/01 03:34:15;;;;;;;5.95;3.80;;;;;;;10.87;100.00;99776.03;5045988;28;20024;-84
2022/10/01 03:36:41;;;;;;;6.10;3.53;;;;;;;10.92;100.00;99776.44;5053722;28;20037;-84
2022/10/01 03:39:06;;;;;;;4.35;3.45;;;;;;;10.91;100.00;99768.38;5026981;28;20055;-84
2022/10/01 03:41:32;;;;;;;4.97;2.75;;;;;;;10.91;100.00;99784.81;5044239;28;20491;-85
2022/10/01 03:43:58;;;;;;;6.20;3.70;;;;;;;10.97;100.00;99773.22;5025692;28;20033;-85
2022/10/01 03:46:23;;;;;;;6.05;3.72;;;;;;;10.93;100.00;99764.47;5044951;28;20047;-85
2022/10/01 03:48:49;;;;;;;4.93;2.72;;;;;;;10.98;100.00;99769.50;5043952;28;20029;-85
2022/10/01 03:51:15;;;;;;;3.83;2.80;;;;;;;10.96;100.00;99769.63;5029614;28;20029;-84
2022/10/01 03:53:40;;;;;;;5.07;3.10;;;;;;;10.95;100.00;99773.41;5044639;28;20396;-84
2022/10/01 03:56:06;;;;;;;5.03;2.92;;;;;;;10.98;100.00;99775.81;5026525;28;20142;-84
2022/10/01 03:58:31;;;;;;;8.82;2.60;;;;;;;11.00;100.00;99772.94;5059145;28;20033;-84
2022/10/01 04:00:57;;;;;;;2.97;2.17;;;;;;;11.05;100.00;99767.88;5061868;28;20037;-85
2022/10/01 04:03:22;;;;;;;2.28;1.60;;;;;;;11.03;100.00;99776.25;5025988;28;20043;-85
2022/10/01 04:05:48;;;;;;;3.50;2.03;;;;;;;10.97;100.00;99768.63;5040632;28;20061;-85
2022/10/01 04:08:14;;;;;;;5.93;1.60;;;;;;;11.05;100.00;99765.13;5043605;28;20029;-85
2022/10/01 04:10:40;;;;;;;2.28;1.95;;;;;;;11.13;100.00;99778.91;5044773;28;20037;-85
2022/10/01 04:13:07;;;;;;;1.92;1.42;;;;;;;11.14;100.00;99786.13;5061105;28;20033;-85
2022/10/01 04:15:32;;;;;;;1.65;1.30;;;;;;;11.18;100.00;99787.56;5040909;28;20493;-85
2022/10/01 04:17:59;;;;;;;2.28;1.55;;;;;;;11.14;100.00;99775.19;5044227;28;20033;-85
2022/10/01 04:20:24;;;;;;;1.38;1.27;;;;;;;11.16;100.00;99781.34;5044302;28;20024;-85
2022/10/01 04:22:50;;;;;;;1.58;1.27;;;;;;;11.14;100.00;99780.66;5041210;28;20037;-85
2022/10/01 04:25:16;;;;;;;1.30;1.20;;;;;;;11.13;100.00;99784.41;5063916;28;20037;-86
2022/10/01 04:27:59;;;;;;;1.50;1.20;;;;;;;11.16;100.00;99789.59;5049301;28;20036;-85
2022/10/01 04:30:26;;;;;;;;;;;;;;;11.22;100.00;99791.72;5057659;28;20037;-85
2022/10/01 04:32:52;;;;;;;2.50;1.17;;;;;;;11.20;100.00;99796.50;5041087;28;19915;-86
2022/10/01 04:35:17;;;;;;;1.33;1.23;;;;;;;11.18;100.00;99795.78;5031816;28;20029;-85
2022/10/01 04:37:43;;;;;;;1.35;1.20;;;;;;;11.16;100.00;99797.81;5041692;28;20101;-85
2022/10/01 04:40:09;;;;;;;2.55;0.98;;;;;;;11.23;100.00;99809.00;5040524;28;20159;-85
2022/10/01 04:42:38;;;;;;;1.25;1.00;;;;;;;11.20;100.00;99801.97;5025975;28;20033;-85
2022/10/01 04:45:04;;;;;;;1.10;0.93;;;;;;;11.26;100.00;99810.59;5054656;28;20043;-86
2022/10/01 04:47:29;;;;;;;1.33;0.98;;;;;;;11.28;100.00;99800.34;5050492;28;20032;-86
2022/10/01 04:49:55;;;;;;;4.40;1.10;;;;;;;11.29;100.00;99811.16;5044344;28;20426;-85
2022/10/01 04:52:20;;;;;;;1.25;1.02;;;;;;;11.31;100.00;99814.59;5028929;28;20128;-84
2022/10/01 04:54:46;;;;;;;2.30;0.90;;;;;;;11.30;100.00;99812.88;5032340;28;20043;-85
2022/10/01 04:57:11;;;;;;;4.45;1.27;;;;;;;11.33;100.00;99808.97;5046104;28;20110;-85
2022/10/01 04:59:36;;;;;;;1.05;0.95;;;;;;;11.34;100.00;99807.97;5065162;28;20037;-85
2022/10/01 05:02:02;;;;;;;1.13;0.90;;;;;;;11.36;100.00;99812.28;5048146;28;20060;-85
2022/10/01 05:04:27;;;;;;;1.52;1.00;;;;;;;11.39;100.00;99811.97;5049694;28;20033;-85
2022/10/01 05:06:53;;;;;;;2.45;0.82;;;;;;;11.44;100.00;99818.88;5028890;28;20048;-85
2022/10/01 05:09:18;;;;;;;1.10;0.95;;;;;;;11.47;100.00;99816.69;5013188;28;20037;-84
2022/10/01 05:11:44;;;;;;;1.52;1.20;;;;;;;11.42;100.00;99807.22;5028983;28;20040;-84
2022/10/01 05:14:10;;;;;;;4.28;0.98;;;;;;;11.50;100.00;99807.31;5066013;28;20452;-84
2022/10/01 05:16:36;;;;;;;2.97;1.13;;;;;;;11.52;100.00;99824.44;5067198;28;20033;-85
2022/10/01 05:19:02;;;;;;;1.98;1.20;;;;;;;11.38;100.00;99798.44;5034435;28;20040;-85
2022/10/01 05:21:27;;;;;;;1.30;1.20;;;;;;;11.57;100.00;99814.75;5066891;28;20384;-85
2022/10/01 05:23:53;;;;;;;1.27;1.10;;;;;;;11.53;100.00;99815.22;5036956;28;20056;-85
2022/10/01 05:26:18;;;;;;;2.65;1.27;;;;;;;11.54;100.00;99816.94;5016656;28;20033;-84
2022/10/01 05:28:44;;;;;;;2.03;1.60;;;;;;;11.53;100.00;99805.09;5064991;28;20033;-84
2022/10/01 05:31:10;;;;;;;1.30;1.05;;;;;;;11.65;100.00;99832.31;5065490;28;20029;-84
2022/10/01 05:33:36;;;;;;;9.95;1.40;;;;;;;11.62;100.00;99830.72;5058343;28;20029;-85
2022/10/01 05:36:05;;;;;;;2.10;1.60;;;;;;;11.64;100.00;99838.81;5064507;28;20112;-85
2022/10/01 05:38:35;;;;;;;3.83;1.77;;;;;;;11.63;100.00;99834.34;5064519;28;20022;-85
2022/10/01 05:41:00;;;;;;;3.40;2.05;;;;;;;11.64;100.00;99852.50;5058549;28;20033;-86
2022/10/01 05:43:25;;;;;;;2.15;1.90;;;;;;;11.71;100.00;99839.94;5048115;28;20044;-86
2022/10/01 05:45:51;;;;;;;5.10;2.10;;;;;;;11.67;100.00;99852.22;5049589;28;20088;-85
2022/10/01 05:48:16;;;;;;;4.55;2.47;;;;;;;11.71;100.00;99859.97;5055481;28;20025;-83
2022/10/01 05:50:43;;;;;;;5.95;2.95;;;;;;;11.73;100.00;99860.69;5048890;28;20480;-84
2022/10/01 05:53:12;;;;;;;4.75;2.72;;;;;;;11.77;100.00;99862.13;5047224;28;20059;-83
2022/10/01 05:55:38;;;;;;;3.15;2.70;;;;;;;11.77;100.00;99866.72;5038104;28;20018;-84
2022/10/01 05:58:06;;;;;;;4.93;2.60;;;;;;;11.79;100.00;99864.72;5024986;28;20471;-84
2022/10/01 06:00:33;;;;;;;3.03;2.72;;;;;;;11.78;100.00;99872.06;5054695;28;20082;-85
2022/10/01 06:03:01;;;;;;;4.25;2.67;;;;;;;11.81;100.00;99881.88;5053221;28;20037;-84
2022/10/01 06:05:27;;;;;;;6.95;3.08;;;;;;;11.76;100.00;99873.25;5047843;28;20060;-84
2022/10/01 06:07:53;;;;;;;3.50;3.20;;;;;;;11.78;100.00;99884.91;5058692;28;20024;-84
2022/10/01 06:10:20;;;;;;;4.30;3.85;;;;;;;11.88;100.00;99888.44;5041258;28;20032;-84
2022/10/01 06:12:47;;;;;;;4.38;3.40;;;;;;;11.87;100.00;99884.00;5036379;28;20033;-84
2022/10/01 06:15:13;;;;;;;6.22;4.00;;;;;;;11.89;100.00;99881.97;5039387;28;20514;-85
2022/10/01 06:17:44;;;;;;;5.13;3.95;;;;;;;11.92;100.00;99873.44;5050911;28;20025;-83
2022/10/01 06:20:17;;;;;;;9.43;4.80;;;;;;;11.90;100.00;99880.94;5051985;28;20040;-83
2022/10/01 06:22:51;;;;;;;7.18;4.63;;;;;;;11.93;100.00;99891.63;5052519;28;20024;-84
2022/10/01 06:25:16;;;;;;;7.53;4.30;;;;;;;11.99;100.00;99897.53;5050863;28;20516;-83
2022/10/01 06:27:42;;;;;;;7.50;4.68;;;;;;;11.99;100.00;99889.31;5063273;28;20034;-83
2022/10/01 06:30:08;;;;;;;8.50;5.22;;;;;;;12.05;100.00;99903.25;5080813;28;20040;-83
2022/10/01 06:32:33;;;;;;;11.85;5.93;;;;;;;12.06;100.00;99904.13;5028640;28;20029;-84
2022/10/01 06:34:59;;;;;;;11.18;5.57;;;;;;;12.00;100.00;99889.13;5024860;28;20029;-83
2022/10/01 06:37:24;;;;;;;9.13;6.22;;;;;;;12.14;100.00;99904.19;5042732;28;20098;-83
2022/10/01 06:39:50;;;;;;;9.98;6.00;;;;;;;12.16;100.00;99906.78;5040084;28;20144;-85
2022/10/01 06:42:15;;;;;;;9.55;6.15;;;;;;;12.17;100.00;99911.25;5039381;28;20040;-83
2022/10/01 06:44:41;;;;;;;10.50;6.50;;;;;;;12.22;100.00;99917.16;5025147;28;20125;-84
2022/10/01 06:47:07;;;;;;;10.85;6.68;;;;;;;12.24;100.00;99915.09;5024645;28;20083;-83
2022/10/01 06:49:33;;;;;;;12.55;6.68;;;;;;;12.30;100.00;99911.75;5028695;28;20037;-84
2022/10/01 06:54:43;;;;;;;16.25;8.93;;;;;;;12.29;100.00;99908.13;5058318;28;20040;-83
2022/10/01 06:57:09;;;;;;;12.20;7.53;;;;;;;12.39;100.00;99918.19;5053994;28;20041;-84
2022/10/01 06:59:37;;;;;;;12.80;6.82;;;;;;;12.39;100.00;99918.19;5041255;28;20194;-83
2022/10/01 07:02:03;;;;;;;11.75;6.68;;;;;;;12.39;100.00;99918.19;5050951;28;20060;-84
2022/10/01 07:04:29;;;;;;;14.35;7.60;;;;;;;12.38;100.00;99922.81;5067516;28;20518;-82
2022/10/01 07:06:55;;;;;;;13.13;6.72;;;;;;;12.46;100.00;99913.78;5043672;28;20102;-83
2022/10/01 07:09:24;;;;;;;12.57;6.57;;;;;;;12.61;100.00;99934.19;5067814;28;20034;-82
2022/10/01 07:11:50;;;;;;;11.52;6.90;;;;;;;12.60;100.00;99934.34;5027814;28;20097;-84
2022/10/01 07:14:15;;;;;;;10.55;7.30;;;;;;;12.64;100.00;99933.88;5015962;28;20460;-84
2022/10/01 07:16:41;;;;;;;8.48;6.53;;;;;;;12.66;100.00;99940.06;5062401;28;20568;-83
2022/10/01 07:19:06;;;;;;;14.65;7.18;;;;;;;12.66;100.00;99942.81;5027975;28;20111;-83
2022/10/01 07:21:32;;;;;;;14.55;7.13;;;;;;;12.69;100.00;99938.88;5022887;28;20505;-83
2022/10/01 07:23:57;;;;;;;12.35;7.05;;;;;;;12.67;100.00;99932.66;5022638;28;20036;-84
2022/10/01 07:26:22;;;;;;;19.00;9.57;;;;;;;12.70;100.00;99940.59;5023129;28;20033;-84
2022/10/01 07:28:48;;;;;;;12.93;8.02;;;;;;;12.76;100.00;99941.88;5042410;28;20491;-84
2022/10/01 07:31:13;;;;;;;18.25;7.80;;;;;;;12.87;100.00;99944.34;5053194;28;20047;-85
2022/10/01 07:33:40;;;;;;;21.05;8.13;;;;;;;12.88;100.00;99943.34;5056931;28;20132;-83
2022/10/01 07:36:07;;;;;;;18.25;8.77;;;;;;;13.02;100.00;99937.28;5056175;28;20032;-83
2022/10/01 07:38:33;;;;;;;16.75;10.25;;;;;;;13.10;100.00;99938.34;5055151;28;20091;-83
2022/10/01 07:41:01;;;;;;;18.73;10.85;;;;;;;13.30;100.00;99942.63;5040696;28;20025;-83
2022/10/01 07:43:27;;;;;;;34.00;10.38;;;;;;;13.51;100.00;99941.38;5021081;28;20111;-84
2022/10/01 07:45:56;;;;;;;22.35;12.63;;;;;;;13.54;100.00;99952.06;5064213;28;20040;-83
2022/10/01 07:48:25;;;;;;;18.35;10.75;;;;;;;13.53;100.00;99955.84;5025960;28;20036;-83
2022/10/01 07:50:51;;;;;;;16.55;10.05;;;;;;;13.39;100.00;99966.41;5046470;28;20040;-83
2022/10/01 07:53:17;;;;;;;13.93;9.57;;;;;;;13.45;100.00;99975.91;5020313;28;20493;-83
2022/10/01 07:55:43;;;;;;;20.98;9.60;;;;;;;13.41;100.00;99974.50;5032083;28;20055;-83
2022/10/01 07:58:10;;;;;;;22.73;10.13;;;;;;;13.36;100.00;99976.88;5044378;28;20033;-83
2022/10/01 08:00:36;;;;;;;27.23;9.93;;;;;;;13.39;100.00;99984.78;5061388;28;20496;-83
2022/10/01 08:03:02;;;;;;;23.48;11.32;;;;;;;13.41;100.00;99989.13;5065929;28;20036;-81
2022/10/01 08:05:32;;;;;;;26.38;11.90;;;;;;;13.41;100.00;99991.88;5066006;28;20143;-83
2022/10/01 08:08:03;;;;;;;16.63;11.98;;;;;;;13.38;100.00;99983.06;5071021;28;20040;-82
2022/10/01 08:10:29;;;;;;;19.38;11.82;;;;;;;13.38;100.00;99994.94;5079569;28;20025;-82
2022/10/01 08:13:07;;;;;;;27.27;12.77;;;;;;;13.39;100.00;100001.28;5049045;28;20037;-82
2022/10/01 08:15:32;;;;;;;24.88;11.95;;;;;;;13.32;100.00;99992.84;5047941;28;20033;-83
2022/10/01 08:18:02;;;;;;;30.02;13.07;;;;;;;13.34;100.00;99989.91;5065401;28;20033;-81
2022/10/01 08:20:28;;;;;;;22.52;11.80;;;;;;;13.37;100.00;99995.97;5050202;28;20025;-82
2022/10/01 08:22:53;;;;;;;22.52;12.30;;;;;;;13.48;100.00;100014.09;5051357;28;20045;-82
2022/10/01 08:25:19;;;;;;;29.15;13.63;;;;;;;13.55;100.00;100008.81;5041885;28;20041;-82
2022/10/01 08:27:44;;;;;;;29.05;13.75;;;;;;;13.59;100.00;100013.81;5055512;28;20124;-82
2022/10/01 08:30:10;;;;;;;28.25;13.02;;;;;;;13.48;100.00;100005.84;5024016;28;20029;-82
2022/10/01 08:32:35;;;;;;;24.90;13.25;;;;;;;13.46;100.00;100009.75;5036218;28;20123;-82
2022/10/01 08:35:01;;;;;;;24.38;13.55;;;;;;;13.48;100.00;100018.72;5041730;28;20044;-82
2022/10/01 08:37:28;;;;;;;23.05;13.15;;;;;;;13.46;100.00;100027.13;5043127;28;20032;-82
2022/10/01 08:39:54;;;;;;;25.75;13.75;;;;;;;13.48;100.00;100027.84;5042975;28;20032;-82
2022/10/01 08:42:35;;;;;;;24.02;12.40;;;;;;;13.63;100.00;100021.75;5026984;28;20036;-82
2022/10/01 08:45:05;;;;;;;21.52;12.43;;;;;;;13.71;100.00;100028.16;5056678;28;20513;-82
2022/10/01 08:47:37;;;;;;;21.67;12.75;;;;;;;13.75;100.00;100036.94;5059673;28;20021;-82
2022/10/01 08:50:29;;;;;;;24.33;10.85;;;;;;;13.90;100.00;100040.81;5026866;28;20040;-82
2022/10/01 08:53:00;;;;;;;23.33;10.38;;;;;;;13.94;100.00;100044.97;5054745;28;20036;-82
2022/10/01 08:55:34;;;;;;;20.23;9.82;;;;;;;14.01;100.00;100041.56;5061622;28;20535;-82
2022/10/01 08:58:03;;;;;;;26.65;8.93;;;;;;;14.30;100.00;100044.81;5060510;28;20036;-81
2022/10/01 09:00:32;;;;;;;14.43;8.40;;;;;;;14.93;100.00;100050.88;5057661;28;20040;-81
2022/10/01 09:03:03;;;;;;;16.20;7.30;;;;;;;14.47;100.00;100048.47;5052913;28;20037;-82
2022/10/01 09:05:34;;;;;;;15.02;7.45;;;;;;;14.44;100.00;100062.56;5057486;28;20392;-82
2022/10/01 09:08:15;;;;;;;13.98;5.28;;;;;;;14.57;100.00;100064.88;5061268;28;20059;-82
2022/10/01 09:10:50;;;;;;;8.93;4.97;;;;;;;14.71;100.00;100060.66;5060786;28;20436;-81
2022/10/01 09:13:40;;;;;;;15.13;4.55;;;;;;;14.72;100.00;100062.34;5038596;28;20044;-82
2022/10/01 09:16:23;;;;;;;7.68;3.80;;;;;;;15.27;100.00;100069.16;5069766;28;20454;-82
2022/10/01 09:19:00;;;;;;;8.93;3.97;;;;;;;14.77;100.00;100067.38;5078502;28;20545;-81
2022/10/01 09:21:46;;;;;;;9.02;2.97;;;;;;;15.04;100.00;100071.75;5062148;28;20060;-82
2022/10/01 09:24:14;;;;;;;15.65;3.58;;;;;;;14.95;100.00;100073.59;5056695;28;20043;-82
2022/10/01 09:26:49;;;;;;;11.48;2.90;;;;;;;14.63;100.00;100074.41;5059691;28;20068;-81
2022/10/01 09:29:30;;;;;;;13.50;3.42;;;;;;;14.74;100.00;100081.47;5061648;28;20032;-82
2022/10/01 09:31:58;;;;;;;8.20;3.03;;;;;;;15.02;100.00;100080.19;5050328;28;20484;-82
2022/10/01 09:34:36;;;;;;;16.52;3.40;;;;;;;15.57;100.00;100092.44;5037803;28;20120;-81
2022/10/01 09:37:53;;;;;;;11.82;3.20;;;;;;;15.66;100.00;100097.94;5057833;28;20537;-82
2022/10/01 09:40:43;;;;;;;6.90;3.20;;;;;;;15.92;100.00;100111.59;4981271;28;20038;-82
2022/10/01 09:43:10;;;;;;;11.88;3.50;;;;;;;15.93;100.00;100100.38;5039902;28;20049;-82
2022/10/01 09:45:37;;;;;;;13.18;3.83;;;;;;;15.92;100.00;100120.75;5022534;28;20039;-82
2022/10/01 09:48:28;;;;;;;21.17;4.20;;;;;;;15.87;100.00;100112.13;5041156;28;20025;-82
2022/10/01 09:51:00;;;;;;;23.02;5.97;;;;;;;16.34;100.00;100116.84;5044329;28;20555;-82
2022/10/01 09:53:45;;;;;;;20.20;4.30;;;;;;;16.46;100.00;100111.81;5059632;28;20396;-82
2022/10/01 09:56:24;;;;;;;16.00;4.15;;;;;;;16.35;100.00;100114.97;5060721;28;20790;-82
2022/10/01 09:58:54;;;;;;;15.80;3.72;;;;;;;16.54;100.00;100117.31;5060162;28;20064;-82
2022/10/01 10:01:25;;;;;;;16.98;4.55;;;;;;;17.00;100.00;100119.34;5040962;28;20469;-82
2022/10/01 10:03:56;;;;;;;16.85;4.00;;;;;;;17.02;100.00;100128.34;5058287;28;20036;-82
2022/10/01 10:06:28;;;;;;;18.85;4.05;;;;;;;16.92;100.00;100127.69;5037586;28;20068;-82
2022/10/01 10:08:56;;;;;;;16.23;3.70;;;;;;;17.36;100.00;100121.53;5062486;28;20024;-82
2022/10/01 10:11:28;;;;;;;18.42;3.58;;;;;;;17.26;100.00;100119.00;5039405;28;20057;-82
2022/10/01 10:13:58;;;;;;;13.23;3.50;;;;;;;17.32;100.00;100127.63;5057419;28;20420;-82
2022/10/01 10:16:27;;;;;;;19.52;3.38;;;;;;;17.85;100.00;100124.97;5040219;28;20334;-79
2022/10/01 10:19:09;;;;;;;26.08;3.88;;;;;;;17.26;100.00;100131.97;5050625;28;20028;-81
2022/10/01 10:21:34;;;;;;;19.73;3.25;;;;;;;17.01;100.00;100132.13;5058086;28;20484;-80
2022/10/01 10:24:19;;;;;;;16.90;3.30;;;;;;;16.50;100.00;100129.75;5054302;28;20036;-82
2022/10/01 10:26:54;;;;;;;20.70;4.05;;;;;;;16.41;100.00;100144.63;5023266;28;20446;-80
2022/10/01 10:29:34;;;;;;;22.20;4.95;;;;;;;16.24;100.00;100146.56;5046078;28;20044;-80
2022/10/01 10:32:13;;;;;;;23.38;4.00;;;;;;;16.09;100.00;100146.44;5053201;28;20032;-81
2022/10/01 10:34:45;;;;;;;17.67;3.40;;;;;;;15.99;100.00;100137.47;5071743;28;20112;-81
2022/10/01 10:37:35;;;;;;;23.90;3.53;;;;;;;16.01;100.00;100148.34;5021455;28;20116;-82
2022/10/01 10:40:02;;;;;;;27.98;4.38;;;;;;;15.89;100.00;100165.28;5038609;28;20026;-81
2022/10/01 10:42:27;;;;;;;13.80;3.25;;;;;;;15.67;100.00;100171.44;5036754;28;20038;-83
2022/10/01 10:44:57;;;;;;;21.88;2.55;;;;;;;15.59;100.00;100191.59;5052303;28;20480;-83
2022/10/01 10:47:25;;;;;;;22.77;3.00;;;;;;;15.76;100.00;100181.50;5059012;28;20020;-83
2022/10/01 10:49:55;;;;;;;19.80;3.08;;;;;;;15.99;100.00;100179.75;5040250;28;20480;-82
2022/10/01 10:52:28;;;;;;;21.13;3.03;;;;;;;16.62;100.00;100171.69;5056528;28;20029;-82
2022/10/01 10:54:54;;;;;;;;;;;;;;;16.90;100.00;100193.38;5047575;28;20037;-82
2022/10/01 10:57:20;;;;;;;13.00;2.15;;;;;;;17.16;100.00;100192.22;5036236;28;19927;-82
2022/10/01 10:59:59;;;;;;;17.55;2.80;;;;;;;17.29;100.00;100188.88;5055843;28;20100;-82
2022/10/01 11:02:30;;;;;;;22.75;2.03;;;;;;;17.47;100.00;100203.28;5040998;28;20055;-83
2022/10/01 11:05:04;;;;;;;23.67;3.25;;;;;;;17.50;100.00;100202.91;5050289;28;20149;-83
2022/10/01 11:07:30;;;;;;;24.33;2.92;;;;;;;17.47;100.00;100194.97;5037835;28;20021;-83
2022/10/01 11:10:17;;;;;;;19.33;2.17;;;;;;;17.41;100.00;100212.31;5038270;28;20040;-83
2022/10/01 11:12:46;;;;;;;24.08;2.10;;;;;;;17.62;100.00;100215.28;5056909;28;20035;-83
2022/10/01 11:15:14;;;;;;;20.83;1.98;;;;;;;17.79;100.00;100199.44;5051600;28;20891;-82
2022/10/01 11:17:39;;;;;;;20.83;1.92;;;;;;;17.71;100.00;100201.38;5051729;28;20560;-83
2022/10/01 11:20:14;;;;;;;14.57;1.98;;;;;;;17.80;100.00;100208.59;5049983;28;20068;-83
2022/10/01 11:22:53;;;;;;;18.42;2.05;;;;;;;18.18;100.00;100208.66;5052408;28;20120;-83
2022/10/01 11:25:54;;;;;;;15.98;1.50;;;;;;;18.34;100.00;100200.19;5052940;28;20127;-83
2022/10/01 11:28:38;;;;;;;14.43;2.47;;;;;;;17.77;100.00;100218.16;4996393;28;20425;-82
2022/10/01 11:31:31;;;;;;;18.15;1.58;;;;;;;17.56;100.00;100213.28;5051664;28;20032;-83
2022/10/01 11:34:12;;;;;;;16.88;1.90;;;;;;;17.66;100.00;100224.09;5038119;28;20091;-82